createdAt,value
2022-11-05T00:04:41.969Z,7.8
2022-11-05T00:10:00.749Z,7.81
2022-11-05T00:15:19.965Z,7.77
2022-11-05T00:20:40.306Z,7.8
2022-11-05T00:25:58.238Z,7.93
2022-11-05T00:31:17.709Z,7.94
2022-11-05T00:36:37.867Z,7.94
2022-11-05T00:43:12.321Z,7.87
2022-11-05T00:47:15.226Z,7.86
2022-11-05T00:52:34.575Z,7.91
2022-11-05T00:57:54.074Z,7.93
2022-11-05T01:03:22.874Z,7.94
2022-11-05T01:08:32.310Z,7.94
2022-11-05T01:13:52.076Z,7.89
2022-11-05T01:19:12.009Z,7.89
2022-11-05T01:24:30.210Z,7.84
2022-11-05T01:29:50.085Z,7.77
2022-11-05T01:36:24.227Z,7.74
2022-11-05T01:40:38.863Z,7.73
2022-11-05T01:45:47.015Z,7.74
2022-11-05T01:51:06.308Z,7.77
2022-11-05T01:56:25.160Z,7.76
2022-11-05T02:01:45.063Z,7.76
2022-11-05T02:07:04.121Z,7.71
2022-11-05T02:12:31.644Z,7.71
2022-11-05T02:17:43.668Z,7.67
2022-11-05T02:23:02.283Z,7.67
2022-11-05T02:28:22.360Z,7.7
2022-11-05T02:33:41.966Z,7.7
2022-11-05T02:39:01.711Z,7.74
2022-11-05T02:44:20.334Z,7.79
2022-11-05T02:49:40.090Z,7.8
2022-11-05T02:55:00.249Z,7.83
2022-11-05T03:00:19.860Z,7.84
2022-11-05T03:05:38.500Z,7.87
2022-11-05T03:10:58.122Z,7.87
2022-11-05T03:16:17.698Z,7.9
2022-11-05T03:21:36.623Z,7.87
2022-11-05T03:26:55.180Z,7.81
2022-11-05T03:32:14.056Z,7.77
2022-11-05T03:37:33.615Z,7.77
2022-11-05T03:42:52.861Z,7.79
2022-11-05T03:48:11.910Z,7.76
2022-11-05T03:53:31.108Z,7.77
2022-11-05T03:58:48.888Z,7.71
2022-11-05T04:04:08.518Z,7.71
2022-11-05T04:09:27.920Z,7.73
2022-11-05T04:14:47.330Z,7.74
2022-11-05T04:20:06.362Z,7.73
2022-11-05T04:25:25.176Z,7.74
2022-11-05T04:30:44.634Z,7.79
2022-11-05T04:36:04.070Z,7.76
2022-11-05T04:41:23.953Z,7.76
2022-11-05T04:46:43.708Z,7.76
2022-11-05T04:53:17.862Z,7.8
2022-11-05T04:57:22.056Z,7.84
2022-11-05T05:02:40.791Z,7.86
2022-11-05T05:09:14.995Z,7.87
2022-11-05T05:13:19.034Z,7.84
2022-11-05T05:18:42.193Z,7.83
2022-11-05T05:23:58.297Z,7.87
2022-11-05T05:29:17.302Z,7.89
2022-11-05T05:34:35.458Z,7.87
2022-11-05T05:39:55.051Z,7.86
2022-11-05T05:45:14.731Z,7.79
2022-11-05T05:50:33.687Z,7.79
2022-11-05T05:55:52.937Z,7.76
2022-11-05T06:01:15.693Z,7.73
2022-11-05T06:06:31.633Z,7.73
2022-11-05T06:11:50.837Z,7.73
2022-11-05T06:17:09.561Z,7.66
2022-11-05T06:22:28.624Z,7.67
2022-11-05T06:27:47.908Z,7.67
2022-11-05T06:33:06.920Z,7.67
2022-11-05T06:38:26.560Z,7.7
2022-11-05T06:43:46.546Z,7.7
2022-11-05T06:49:05.119Z,7.73
2022-11-05T06:54:24.241Z,7.76
2022-11-05T06:59:43.321Z,7.79
2022-11-05T07:05:02.656Z,7.81
2022-11-05T07:10:21.823Z,7.84
2022-11-05T07:15:40.759Z,7.93
2022-11-05T07:21:01.129Z,8.02
2022-11-05T07:26:20.539Z,8.02
2022-11-05T07:32:54.731Z,8.04
2022-11-05T07:36:57.962Z,8.1
2022-11-05T07:42:17.408Z,8.2
2022-11-05T07:42:42.439Z,8.38
2022-11-05T07:48:02.017Z,8.29
2022-11-05T07:53:21.384Z,8.28
2022-11-05T07:58:40.164Z,8.24
2022-11-05T08:03:59.462Z,8.25
2022-11-05T08:09:18.941Z,8.22
2022-11-05T08:14:38.678Z,8.29
2022-11-05T08:19:57.047Z,8.31
2022-11-05T08:25:16.545Z,8.27
2022-11-05T08:30:34.701Z,8.21
2022-11-05T08:35:54.292Z,8.18
2022-11-05T08:41:13.633Z,8.18
2022-11-05T08:46:41.933Z,8.2
2022-11-05T08:51:52.346Z,8.24
2022-11-05T08:58:26.496Z,8.31
2022-11-05T09:02:29.515Z,8.29
2022-11-05T09:07:49.154Z,8.34
2022-11-05T09:13:13.206Z,8.38
2022-11-05T09:18:28.975Z,8.43
2022-11-05T09:23:47.397Z,8.43
2022-11-05T09:29:10.351Z,8.42
2022-11-05T09:34:26.411Z,8.43
2022-11-05T09:39:45.668Z,8.45
2022-11-05T09:45:05.321Z,8.45
2022-11-05T09:50:23.985Z,8.43
2022-11-05T09:55:43.810Z,8.52
2022-11-05T10:01:03.411Z,8.59
2022-11-05T10:06:22.267Z,8.68
2022-11-05T10:11:41.939Z,8.77
2022-11-05T10:17:01.690Z,8.93
2022-11-05T10:22:21.400Z,9.18
2022-11-05T10:27:41.115Z,9.32
2022-11-05T10:33:00.513Z,9.47
2022-11-05T10:38:18.786Z,9.74
2022-11-05T10:43:37.823Z,9.96
2022-11-05T10:48:57.561Z,10.09
2022-11-05T10:54:15.670Z,10.41
2022-11-05T10:59:35.245Z,10.67
2022-11-05T11:04:54.505Z,11.28
2022-11-05T11:10:14.909Z,12.37
2022-11-05T11:15:33.093Z,12.45
2022-11-05T11:20:52.442Z,11.77
2022-11-05T11:26:12.486Z,11.11
2022-11-05T11:32:46.616Z,10.72
2022-11-05T11:36:50.301Z,10.51
2022-11-05T11:42:09.220Z,10.34
2022-11-05T11:47:28.617Z,10.2
2022-11-05T11:52:47.775Z,9.71
2022-11-05T11:58:16.839Z,8.79
2022-11-05T12:03:25.795Z,8.43
2022-11-05T12:08:45.919Z,8.31
2022-11-05T12:14:04.421Z,8.2
2022-11-05T12:19:24.032Z,8.18
2022-11-05T12:24:42.489Z,8.25
2022-11-05T12:30:01.900Z,8.32
2022-11-05T12:35:20.504Z,8.43
2022-11-05T12:40:40.283Z,8.89
2022-11-05T12:45:59.992Z,9.22
2022-11-05T12:51:18.273Z,9.28
2022-11-05T12:56:37.999Z,9.17
2022-11-05T13:01:57.806Z,9.27
2022-11-05T13:07:17.344Z,9.24
2022-11-05T13:12:36.476Z,9.1
2022-11-05T13:18:05.406Z,9.1
2022-11-05T13:23:15.318Z,9.1
2022-11-05T13:28:34.592Z,9.16
2022-11-05T13:33:53.420Z,9.2
2022-11-05T13:39:13.136Z,9.3
2022-11-05T13:44:32.413Z,9.43
2022-11-05T13:49:51.497Z,9.47
2022-11-05T13:55:11.207Z,9.43
2022-11-05T14:00:30.615Z,9.38
2022-11-05T14:05:50.049Z,9.41
2022-11-05T14:11:09.971Z,9.27
2022-11-05T14:16:28.364Z,9.1
2022-11-05T14:21:47.383Z,9
2022-11-05T14:27:06.154Z,8.53
2022-11-05T14:32:25.877Z,8.35
2022-11-05T14:37:44.844Z,8.41
2022-11-05T14:43:04.538Z,8.51
2022-11-05T14:48:23.757Z,8.75
2022-11-05T14:53:42.699Z,8.91
2022-11-05T14:59:01.933Z,8.91
2022-11-05T15:04:21.089Z,8.82
2022-11-05T15:09:41.371Z,8.64
2022-11-05T15:15:00.237Z,8.53
2022-11-05T15:20:18.998Z,8.49
2022-11-05T15:25:48.994Z,8.45
2022-11-05T15:30:56.988Z,8.38
2022-11-05T15:36:15.947Z,8.35
2022-11-05T15:41:35.230Z,8.34
2022-11-05T15:46:54.292Z,8.34
2022-11-05T15:52:14.260Z,8.24
2022-11-05T15:57:32.190Z,8.1
2022-11-05T16:02:51.919Z,7.91
2022-11-05T16:08:11.699Z,7.76
2022-11-05T16:13:30.742Z,7.62
2022-11-05T16:18:49.897Z,7.5
2022-11-05T16:24:10.299Z,7.52
2022-11-05T16:29:28.638Z,7.58
2022-11-05T16:34:48.272Z,7.56
2022-11-05T16:40:08.206Z,7.55
2022-11-05T16:45:27.526Z,7.5
2022-11-05T16:50:47.134Z,7.46
2022-11-05T16:57:21.286Z,7.33
2022-11-05T17:01:25.340Z,7.22
2022-11-05T17:06:44.918Z,7.12
2022-11-05T17:12:04.090Z,7.09
2022-11-05T17:17:23.085Z,7.07
2022-11-05T17:22:42.598Z,7.08
2022-11-05T17:28:00.874Z,7.09
2022-11-05T17:33:20.393Z,7.08
2022-11-05T17:38:39.077Z,7.01
2022-11-05T17:43:58.414Z,7.02
2022-11-05T17:49:17.362Z,6.97
2022-11-05T17:54:37.264Z,6.84
2022-11-05T17:59:56.949Z,6.81
2022-11-05T18:05:16.657Z,6.73
2022-11-05T18:10:35.445Z,6.67
2022-11-05T18:17:09.606Z,6.61
2022-11-05T18:21:13.410Z,6.51
2022-11-05T18:26:33.003Z,6.51
2022-11-05T18:31:52.524Z,6.49
2022-11-05T18:37:11.204Z,6.5
2022-11-05T18:42:30.245Z,6.53
2022-11-05T18:47:49.417Z,6.41
2022-11-05T18:53:08.431Z,6.3
2022-11-05T18:58:27.740Z,6.19
2022-11-05T19:03:46.683Z,6.02
2022-11-05T19:09:06.412Z,5.99
2022-11-05T19:14:25.826Z,6.02
2022-11-05T19:19:45.172Z,6.01
2022-11-05T19:25:04.709Z,5.94
2022-11-05T19:30:25.087Z,5.82
2022-11-05T19:35:44.621Z,5.74
2022-11-05T19:41:04.354Z,5.64
2022-11-05T19:48:02.943Z,5.52
2022-11-05T19:51:43.157Z,5.43
2022-11-05T19:57:02.048Z,5.38
2022-11-05T20:02:20.428Z,5.27
2022-11-05T20:07:39.876Z,5.15
2022-11-05T20:12:58.957Z,5.19
2022-11-05T20:18:18.017Z,5.2
2022-11-05T20:23:37.206Z,5.22
2022-11-05T20:28:56.335Z,5.07
2022-11-05T20:34:15.489Z,4.98
2022-11-05T20:39:35.258Z,4.88
2022-11-05T20:44:53.766Z,4.8
2022-11-05T20:50:12.585Z,4.82
2022-11-05T20:55:31.103Z,4.89
2022-11-05T21:00:50.659Z,4.94
2022-11-05T21:06:09.580Z,4.94
2022-11-05T21:11:28.970Z,4.92
2022-11-05T21:16:47.846Z,4.96
2022-11-05T21:22:06.803Z,4.98
2022-11-05T21:27:26.574Z,4.89
2022-11-05T21:32:46.326Z,4.64
2022-11-05T21:38:05.355Z,4.73
2022-11-05T21:43:24.792Z,4.8
2022-11-05T21:48:44.725Z,4.71
2022-11-05T21:54:04.167Z,4.67
2022-11-05T21:59:23.660Z,4.55
2022-11-05T22:04:42.730Z,4.4
2022-11-05T22:10:01.908Z,4.4
2022-11-05T22:15:21.809Z,4.51
2022-11-05T22:20:40.375Z,4.52
2022-11-05T22:25:59.716Z,4.44
2022-11-05T22:31:19.023Z,4.48
2022-11-05T22:36:37.791Z,4.67
2022-11-05T22:41:57.530Z,4.62
2022-11-05T22:47:17.350Z,4.62
2022-11-05T22:52:36.665Z,4.61
2022-11-05T22:57:56.303Z,4.57
2022-11-05T23:03:16.856Z,4.58
2022-11-05T23:08:35.913Z,4.64
2022-11-05T23:13:54.806Z,4.67
2022-11-05T23:19:13.812Z,4.61
2022-11-05T23:24:32.525Z,4.44
2022-11-05T23:29:52.117Z,4.44
2022-11-05T23:35:11.789Z,4.44
2022-11-05T23:40:30.385Z,4.31
2022-11-05T23:45:49.879Z,4.17
2022-11-05T23:51:08.972Z,4.04
2022-11-05T23:56:28.519Z,3.83
